Time;durP1;ratioP1;P1;durP2;ratioP2;P2;SDS_P1;SDS_P2;PMS_P1;PMS_P2;Temp;Humidity;BMP_temperature;BMP_pressure;BME280_temperature;BME280_humidity;BME280_pressure;Samples;Min_cycle;Max_cycle;Signal;HPM_P1;HPM_P2
2022/08/05 00:00:45;;;;;;;9.30;3.55;;;;;;;;;;6304124;22;20384;-74
2022/08/05 00:03:10;;;;;;;11.55;3.58;;;;;;;;;;6303209;22;20556;-73
2022/08/05 00:05:35;;;;;;;7.93;3.47;;;;;;;;;;6277320;22;20230;-74
2022/08/05 00:08:00;;;;;;;7.17;3.13;;;;;;;;;;6277267;22;20361;-74
2022/08/05 00:10:25;;;;;;;6.22;3.13;;;;;;;;;;6303957;22;20395;-74
2022/08/05 00:12:51;;;;;;;7.70;3.30;;;;;;;;;;6306386;22;20144;-72
2022/08/05 00:15:16;;;;;;;6.90;3.53;;;;;;;;;;6305630;22;20150;-72
2022/08/05 00:17:41;;;;;;;7.73;3.30;;;;;;;;;;6306629;22;20536;-73
2022/08/05 00:20:06;;;;;;;9.50;4.17;;;;;;;;;;6305638;22;20438;-72
2022/08/05 00:22:32;;;;;;;5.00;3.38;;;;;;;;;;6306064;22;20365;-73
2022/08/05 00:24:57;;;;;;;9.87;4.07;;;;;;;;;;6303247;22;20496;-73
2022/08/05 00:27:22;;;;;;;6.00;2.97;;;;;;;;;;6305801;22;20368;-72
2022/08/05 00:29:47;;;;;;;6.60;3.13;;;;;;;;;;6305569;22;20387;-73
2022/08/05 00:32:12;;;;;;;10.70;3.25;;;;;;;;;;6303942;22;20493;-73
2022/08/05 00:34:38;;;;;;;10.40;4.20;;;;;;;;;;6305919;22;20152;-73
2022/08/05 00:37:04;;;;;;;5.32;3.67;;;;;;;;;;6305738;22;20227;-73
2022/08/05 00:39:29;;;;;;;5.72;2.80;;;;;;;;;;6306077;22;20179;-73
2022/08/05 00:41:54;;;;;;;7.05;3.40;;;;;;;;;;6304929;22;20496;-74
2022/08/05 00:44:19;;;;;;;5.80;3.40;;;;;;;;;;6306108;22;20305;-74
2022/08/05 00:46:44;;;;;;;5.85;3.00;;;;;;;;;;6306734;22;20147;-74
2022/08/05 00:49:09;;;;;;;9.47;3.10;;;;;;;;;;6306412;22;20147;-74
2022/08/05 00:51:35;;;;;;;6.80;3.10;;;;;;;;;;6305744;22;20404;-74
2022/08/05 00:54:01;;;;;;;5.25;2.92;;;;;;;;;;6305257;22;20357;-74
2022/08/05 00:56:26;;;;;;;8.30;3.38;;;;;;;;;;6278266;22;20501;-73
2022/08/05 00:58:51;;;;;;;4.53;2.90;;;;;;;;;;6303819;22;20152;-74
2022/08/05 01:01:16;;;;;;;6.43;3.10;;;;;;;;;;6304929;22;20435;-73
2022/08/05 01:03:42;;;;;;;4.50;2.85;;;;;;;;;;6305427;22;20494;-74
2022/08/05 01:06:07;;;;;;;6.88;2.63;;;;;;;;;;6305769;22;20148;-73
2022/08/05 01:08:33;;;;;;;6.85;2.65;;;;;;;;;;6306399;22;20148;-74
2022/08/05 01:11:03;;;;;;;8.27;3.03;;;;;;;;;;6305285;22;20167;-74
2022/08/05 01:13:31;;;;;;;6.85;3.40;;;;;;;;;;6306403;22;20174;-74
2022/08/05 01:15:58;;;;;;;6.72;3.08;;;;;;;;;;6306005;22;20147;-74
2022/08/05 01:18:24;;;;;;;4.05;2.33;;;;;;;;;;6306678;22;20144;-74
2022/08/05 01:20:59;;;;;;;3.85;2.75;;;;;;;;;;6304872;22;20167;-74
2022/08/05 01:23:30;;;;;;;12.13;3.55;;;;;;;;;;6306222;22;20142;-73
2022/08/05 01:26:06;;;;;;;5.10;3.00;;;;;;;;;;6304860;22;20148;-74
2022/08/05 01:28:31;;;;;;;4.70;2.95;;;;;;;;;;6278147;22;20162;-74
2022/08/05 01:31:22;;;;;;;6.53;3.15;;;;;;;;;;6304937;22;20171;-73
2022/08/05 01:33:50;;;;;;;4.90;2.50;;;;;;;;;;6255847;22;20836;-74
2022/08/05 01:36:17;;;;;;;7.63;2.97;;;;;;;;;;6303753;22;20144;-73
2022/08/05 01:38:45;;;;;;;6.22;2.78;;;;;;;;;;6305032;22;20171;-73
2022/08/05 01:41:11;;;;;;;5.10;3.60;;;;;;;;;;6301672;22;20614;-73
2022/08/05 01:43:37;;;;;;;6.95;3.53;;;;;;;;;;6305185;22;20248;-73
2022/08/05 01:46:03;;;;;;;5.88;3.05;;;;;;;;;;6304590;22;20587;-74
2022/08/05 01:48:30;;;;;;;7.93;3.28;;;;;;;;;;6304962;22;20230;-73
2022/08/05 01:50:56;;;;;;;4.07;2.85;;;;;;;;;;6303967;22;20179;-73
2022/08/05 01:53:21;;;;;;;6.80;4.25;;;;;;;;;;6305482;22;20148;-74
2022/08/05 01:55:47;;;;;;;6.10;4.15;;;;;;;;;;6277227;22;20151;-74
2022/08/05 01:58:13;;;;;;;7.20;3.90;;;;;;;;;;6304787;22;20144;-73
2022/08/05 02:00:41;;;;;;;4.38;3.17;;;;;;;;;;6304795;22;20436;-73
2022/08/05 02:03:09;;;;;;;8.90;4.28;;;;;;;;;;6305686;22;20930;-74
2022/08/05 02:05:35;;;;;;;7.70;4.32;;;;;;;;;;6305386;22;20151;-74
2022/08/05 02:08:01;;;;;;;7.20;3.35;;;;;;;;;;6305213;22;20148;-74
2022/08/05 02:10:27;;;;;;;6.18;3.25;;;;;;;;;;6305178;22;20637;-74
2022/08/05 02:12:54;;;;;;;5.75;3.00;;;;;;;;;;6305414;22;20144;-74
2022/08/05 02:15:19;;;;;;;4.72;2.80;;;;;;;;;;6304708;22;20472;-74
2022/08/05 02:17:48;;;;;;;5.95;3.15;;;;;;;;;;6304782;22;20224;-74
2022/08/05 02:20:17;;;;;;;4.50;2.88;;;;;;;;;;6304840;22;20949;-74
2022/08/05 02:22:44;;;;;;;4.07;3.00;;;;;;;;;;6275646;22;20151;-74
2022/08/05 02:25:18;;;;;;;3.47;2.72;;;;;;;;;;6277031;22;20546;-73
2022/08/05 02:27:47;;;;;;;9.77;2.60;;;;;;;;;;6304789;22;20144;-74
2022/08/05 02:30:13;;;;;;;5.63;3.40;;;;;;;;;;6305384;22;20611;-74
2022/08/05 02:32:39;;;;;;;6.85;3.10;;;;;;;;;;6303540;22;20195;-74
2022/08/05 02:35:08;;;;;;;5.97;2.67;;;;;;;;;;6304837;22;20139;-73
2022/08/05 02:37:34;;;;;;;4.22;2.50;;;;;;;;;;6277434;22;20147;-75
2022/08/05 02:40:00;;;;;;;5.05;2.70;;;;;;;;;;6304659;22;20144;-74
2022/08/05 02:42:26;;;;;;;4.53;2.53;;;;;;;;;;6301993;22;20148;-74
2022/08/05 02:44:52;;;;;;;4.38;2.30;;;;;;;;;;6302926;22;20155;-74
2022/08/05 02:47:17;;;;;;;4.93;2.60;;;;;;;;;;6303875;22;20493;-74
2022/08/05 02:49:43;;;;;;;4.60;2.28;;;;;;;;;;6305147;22;20167;-74
2022/08/05 02:52:09;;;;;;;4.35;2.58;;;;;;;;;;6303751;22;20195;-74
2022/08/05 02:54:36;;;;;;;6.45;3.00;;;;;;;;;;6304810;22;20201;-73
2022/08/05 02:57:01;;;;;;;3.55;2.60;;;;;;;;;;6304431;22;20140;-73
2022/08/05 02:59:27;;;;;;;3.58;2.05;;;;;;;;;;6305073;22;20194;-74
2022/08/05 03:01:56;;;;;;;5.47;2.55;;;;;;;;;;6303795;22;20190;-74
2022/08/05 03:04:22;;;;;;;4.15;2.05;;;;;;;;;;6305362;22;20499;-74
2022/08/05 03:06:47;;;;;;;4.68;2.50;;;;;;;;;;6304239;22;20144;-73
2022/08/05 03:09:13;;;;;;;5.93;2.40;;;;;;;;;;6304582;22;20183;-73
2022/08/05 03:11:40;;;;;;;3.97;2.53;;;;;;;;;;6303990;22;20233;-75
2022/08/05 03:14:05;;;;;;;5.57;2.72;;;;;;;;;;6277796;22;20308;-75
2022/08/05 03:16:31;;;;;;;5.28;2.33;;;;;;;;;;6304811;22;20189;-74
2022/08/05 03:18:56;;;;;;;5.18;2.55;;;;;;;;;;6304990;22;20155;-75
2022/08/05 03:21:21;;;;;;;6.80;2.27;;;;;;;;;;6303732;22;20167;-74
2022/08/05 03:23:46;;;;;;;5.72;2.50;;;;;;;;;;6304110;22;20414;-74
2022/08/05 03:26:12;;;;;;;2.75;1.88;;;;;;;;;;6303916;22;20152;-74
2022/08/05 03:28:37;;;;;;;6.93;2.38;;;;;;;;;;6304203;22;20590;-74
2022/08/05 03:31:03;;;;;;;8.27;2.43;;;;;;;;;;6304409;22;20210;-73
2022/08/05 03:33:29;;;;;;;3.22;2.05;;;;;;;;;;6304831;22;20353;-73
2022/08/05 03:35:57;;;;;;;4.22;2.03;;;;;;;;;;6277057;22;20175;-74
2022/08/05 03:38:23;;;;;;;5.80;2.30;;;;;;;;;;6304285;22;20143;-74
2022/08/05 03:40:48;;;;;;;8.35;1.92;;;;;;;;;;6304222;22;20293;-74
2022/08/05 03:43:14;;;;;;;5.72;2.10;;;;;;;;;;6304343;22;20148;-74
2022/08/05 03:45:39;;;;;;;4.45;2.50;;;;;;;;;;6306183;22;20263;-73
2022/08/05 03:48:05;;;;;;;5.45;2.30;;;;;;;;;;6303784;22;20513;-74
2022/08/05 03:50:51;;;;;;;4.75;2.22;;;;;;;;;;6278749;22;20168;-75
2022/08/05 03:53:37;;;;;;;4.30;1.90;;;;;;;;;;6305308;22;20174;-74
2022/08/05 03:56:08;;;;;;;3.30;2.00;;;;;;;;;;6305625;22;20140;-74
2022/08/05 03:58:35;;;;;;;3.88;2.17;;;;;;;;;;6306480;22;20181;-74
2022/08/05 04:01:01;;;;;;;4.05;1.83;;;;;;;;;;6278337;22;20650;-73
2022/08/05 04:03:27;;;;;;;5.28;1.90;;;;;;;;;;6306348;22;20648;-73
2022/08/05 04:05:52;;;;;;;7.22;2.30;;;;;;;;;;6306302;22;20197;-73
2022/08/05 04:08:18;;;;;;;6.75;2.83;;;;;;;;;;6305811;22;20147;-74
2022/08/05 04:10:43;;;;;;;2.83;1.90;;;;;;;;;;6305802;22;20229;-74
2022/08/05 04:13:09;;;;;;;6.10;3.08;;;;;;;;;;6306363;22;20144;-73
2022/08/05 04:15:34;;;;;;;4.45;1.80;;;;;;;;;;6306447;22;20495;-74
2022/08/05 04:18:00;;;;;;;4.43;1.88;;;;;;;;;;6306119;22;20174;-74
2022/08/05 04:20:26;;;;;;;4.93;1.73;;;;;;;;;;6306217;22;20559;-74
2022/08/05 04:22:51;;;;;;;3.28;2.10;;;;;;;;;;6305576;22;20171;-74
2022/08/05 04:25:16;;;;;;;4.40;2.42;;;;;;;;;;6306260;22;20223;-74
2022/08/05 04:27:41;;;;;;;5.05;2.47;;;;;;;;;;6306585;22;20151;-74
2022/08/05 04:30:07;;;;;;;6.10;2.20;;;;;;;;;;6305740;22;20526;-74
2022/08/05 04:32:33;;;;;;;4.13;2.25;;;;;;;;;;6276985;22;20175;-73
2022/08/05 04:34:58;;;;;;;3.90;2.00;;;;;;;;;;6306311;22;20155;-73
2022/08/05 04:37:23;;;;;;;4.70;2.40;;;;;;;;;;6306265;22;20152;-74
2022/08/05 04:39:48;;;;;;;2.80;2.05;;;;;;;;;;6306293;22;20139;-73
2022/08/05 04:42:14;;;;;;;4.05;2.10;;;;;;;;;;6306076;22;20217;-73
2022/08/05 04:44:39;;;;;;;5.20;2.20;;;;;;;;;;6305825;22;20163;-73
2022/08/05 04:47:04;;;;;;;10.57;2.60;;;;;;;;;;6306116;22;20201;-73
2022/08/05 04:49:29;;;;;;;4.72;2.40;;;;;;;;;;6306081;22;20619;-73
2022/08/05 04:51:54;;;;;;;2.97;1.95;;;;;;;;;;6305618;22;20201;-74
2022/08/05 04:54:21;;;;;;;4.68;1.73;;;;;;;;;;6275833;22;20159;-74
2022/08/05 04:56:46;;;;;;;3.45;1.65;;;;;;;;;;6305684;22;20148;-74
2022/08/05 04:59:13;;;;;;;3.95;2.05;;;;;;;;;;6305966;22;20175;-74
2022/08/05 05:01:38;;;;;;;4.40;1.80;;;;;;;;;;6305658;22;20194;-73
2022/08/05 05:04:03;;;;;;;2.78;2.08;;;;;;;;;;6306519;22;20151;-74
2022/08/05 05:06:28;;;;;;;2.97;2.00;;;;;;;;;;6306913;22;20143;-73
2022/08/05 05:08:54;;;;;;;3.00;2.00;;;;;;;;;;6305118;22;20194;-74
2022/08/05 05:11:19;;;;;;;7.55;1.80;;;;;;;;;;6305303;22;20566;-74
2022/08/05 05:13:44;;;;;;;1.88;1.52;;;;;;;;;;6305745;22;20486;-74
2022/08/05 05:16:09;;;;;;;4.55;2.47;;;;;;;;;;6306273;22;20148;-74
2022/08/05 05:18:34;;;;;;;5.68;1.83;;;;;;;;;;6305761;22;20170;-74
2022/08/05 05:21:00;;;;;;;2.70;1.88;;;;;;;;;;6305608;22;20256;-72
2022/08/05 05:23:25;;;;;;;5.45;2.22;;;;;;;;;;6305410;22;20227;-72
2022/08/05 05:25:51;;;;;;;2.77;1.93;;;;;;;;;;6305741;22;20150;-72
2022/08/05 05:28:16;;;;;;;5.43;2.28;;;;;;;;;;6277084;22;20856;-72
2022/08/05 05:30:41;;;;;;;5.03;1.95;;;;;;;;;;6305105;22;20210;-72
2022/08/05 05:33:07;;;;;;;4.07;2.47;;;;;;;;;;6304178;22;20143;-73
2022/08/05 05:35:32;;;;;;;3.20;1.70;;;;;;;;;;6278437;22;20148;-72
2022/08/05 05:37:59;;;;;;;4.13;1.77;;;;;;;;;;6305396;22;20587;-72
2022/08/05 05:40:25;;;;;;;2.15;1.67;;;;;;;;;;6305845;22;20644;-72
2022/08/05 05:42:50;;;;;;;10.60;2.17;;;;;;;;;;6277955;22;20521;-72
2022/08/05 05:45:16;;;;;;;5.30;2.00;;;;;;;;;;6305130;22;20195;-72
2022/08/05 05:47:42;;;;;;;4.70;2.20;;;;;;;;;;6305686;22;20147;-74
2022/08/05 05:50:09;;;;;;;3.88;1.67;;;;;;;;;;6305612;22;20659;-72
2022/08/05 05:52:34;;;;;;;2.95;1.63;;;;;;;;;;6277239;22;20176;-71
2022/08/05 05:55:04;;;;;;;4.72;1.70;;;;;;;;;;6277886;22;20507;-72
2022/08/05 05:57:29;;;;;;;4.18;1.90;;;;;;;;;;6304820;22;20167;-72
2022/08/05 05:59:54;;;;;;;4.20;1.60;;;;;;;;;;6303527;22;20490;-72
2022/08/05 06:02:19;;;;;;;3.65;1.35;;;;;;;;;;6304735;22;20476;-72
2022/08/05 06:04:45;;;;;;;5.07;1.60;;;;;;;;;;6278220;22;20578;-73
2022/08/05 06:07:10;;;;;;;3.13;1.50;;;;;;;;;;6306153;22;20148;-72
2022/08/05 06:09:35;;;;;;;2.08;1.13;;;;;;;;;;6304704;22;20607;-72
2022/08/05 06:12:00;;;;;;;2.20;1.20;;;;;;;;;;6304750;22;20188;-72
2022/08/05 06:14:26;;;;;;;5.57;1.20;;;;;;;;;;6305211;22;20681;-72
2022/08/05 06:16:51;;;;;;;4.65;1.40;;;;;;;;;;6305141;22;20431;-72
2022/08/05 06:19:16;;;;;;;1.90;1.17;;;;;;;;;;6305285;22;20222;-72
2022/08/05 06:21:42;;;;;;;3.55;1.17;;;;;;;;;;6305049;22;20384;-72
2022/08/05 06:24:07;;;;;;;3.17;1.27;;;;;;;;;;6304384;22;20155;-72
2022/08/05 06:26:32;;;;;;;2.85;1.90;;;;;;;;;;6304790;22;20367;-72
2022/08/05 06:28:57;;;;;;;2.15;0.93;;;;;;;;;;6304520;22;20183;-72
2022/08/05 06:31:23;;;;;;;3.90;1.10;;;;;;;;;;6305121;22;20203;-72
2022/08/05 06:33:48;;;;;;;6.20;1.10;;;;;;;;;;6304078;22;20197;-72
2022/08/05 06:36:13;;;;;;;3.13;0.80;;;;;;;;;;6304587;22;20219;-72
2022/08/05 06:38:38;;;;;;;2.22;0.90;;;;;;;;;;6305238;22;20140;-72
2022/08/05 06:41:04;;;;;;;3.22;0.98;;;;;;;;;;6277187;22;20172;-73
2022/08/05 06:43:30;;;;;;;1.98;1.02;;;;;;;;;;6304863;22;20183;-72
2022/08/05 06:45:55;;;;;;;3.60;0.70;;;;;;;;;;6277663;22;20187;-72
2022/08/05 06:48:20;;;;;;;1.10;0.60;;;;;;;;;;6304937;22;20566;-73
2022/08/05 06:50:45;;;;;;;1.87;0.80;;;;;;;;;;6304135;22;20383;-72
2022/08/05 06:53:12;;;;;;;1.70;0.80;;;;;;;;;;6305492;22;20423;-72
2022/08/05 06:55:37;;;;;;;1.58;0.80;;;;;;;;;;6276877;22;20152;-72
2022/08/05 06:58:02;;;;;;;3.05;0.93;;;;;;;;;;6305486;22;20147;-72
2022/08/05 07:00:30;;;;;;;2.97;0.70;;;;;;;;;;6302082;22;20171;-72
2022/08/05 07:02:55;;;;;;;2.00;0.80;;;;;;;;;;6304042;22;20949;-72
2022/08/05 07:05:20;;;;;;;1.47;0.80;;;;;;;;;;6305225;22;20151;-72
2022/08/05 07:07:47;;;;;;;4.65;0.65;;;;;;;;;;6305386;22;20356;-72
2022/08/05 07:10:12;;;;;;;2.95;0.70;;;;;;;;;;6304955;22;20144;-72
2022/08/05 07:18:05;;;;;;;0.95;0.70;;;;;;;;;;6305477;22;20216;-73
2022/08/05 07:20:30;;;;;;;1.53;0.63;;;;;;;;;;6304221;22;20614;-73
2022/08/05 07:22:55;;;;;;;1.23;0.47;;;;;;;;;;6304925;22;20360;-73
2022/08/05 07:25:21;;;;;;;1.77;0.70;;;;;;;;;;6304663;22;20430;-72
2022/08/05 07:27:47;;;;;;;1.42;0.40;;;;;;;;;;6305135;22;20389;-72
2022/08/05 07:30:12;;;;;;;1.25;0.50;;;;;;;;;;6304471;22;20647;-72
2022/08/05 07:32:37;;;;;;;1.45;0.43;;;;;;;;;;6304464;22;20189;-73
2022/08/05 07:35:06;;;;;;;0.37;0.37;;;;;;;;;;6304821;22;20140;-73
2022/08/05 07:37:31;;;;;;;1.48;0.60;;;;;;;;;;6304441;22;20396;-73
2022/08/05 07:39:56;;;;;;;1.80;0.40;;;;;;;;;;6304121;22;20144;-73
2022/08/05 07:42:21;;;;;;;0.73;0.30;;;;;;;;;;6304394;22;20494;-73
2022/08/05 07:44:47;;;;;;;0.80;0.33;;;;;;;;;;6305362;22;20384;-73
2022/08/05 07:47:12;;;;;;;0.88;0.50;;;;;;;;;;6303810;22;20687;-73
2022/08/05 07:49:38;;;;;;;2.03;0.43;;;;;;;;;;6304905;22;20148;-72
2022/08/05 07:52:03;;;;;;;3.70;0.40;;;;;;;;;;6302569;22;20415;-73
2022/08/05 07:54:28;;;;;;;0.57;0.30;;;;;;;;;;6277338;22;20361;-71
2022/08/05 07:56:53;;;;;;;0.40;0.33;;;;;;;;;;6304128;22;20567;-71
2022/08/05 07:59:18;;;;;;;1.20;0.80;;;;;;;;;;6304592;22;20384;-71
2022/08/05 08:01:44;;;;;;;1.17;0.50;;;;;;;;;;6302442;22;20659;-71
2022/08/05 08:04:09;;;;;;;1.20;0.40;;;;;;;;;;6304104;22;20410;-71
2022/08/05 08:06:34;;;;;;;2.93;0.53;;;;;;;;;;6304942;22;20365;-70
2022/08/05 08:08:59;;;;;;;3.40;0.70;;;;;;;;;;6304996;22;20887;-71
2022/08/05 08:11:24;;;;;;;0.50;0.30;;;;;;;;;;6276669;22;20424;-71
2022/08/05 08:13:51;;;;;;;1.23;0.40;;;;;;;;;;6302513;22;20148;-71
2022/08/05 08:16:16;;;;;;;1.67;0.30;;;;;;;;;;6275836;22;20365;-71
2022/08/05 08:18:42;;;;;;;3.53;0.45;;;;;;;;;;6300938;22;20144;-71
2022/08/05 08:21:07;;;;;;;1.23;0.40;;;;;;;;;;6274789;22;20179;-73
2022/08/05 08:23:32;;;;;;;2.60;0.80;;;;;;;;;;6275831;22;20221;-71
2022/08/05 08:25:57;;;;;;;4.28;0.73;;;;;;;;;;6304167;22;20364;-71
2022/08/05 08:28:22;;;;;;;1.52;0.30;;;;;;;;;;6303597;22;20144;-71
2022/08/05 08:30:47;;;;;;;3.73;0.40;;;;;;;;;;6302787;22;20167;-70
2022/08/05 08:33:13;;;;;;;4.70;0.40;;;;;;;;;;6303584;22;20361;-71
2022/08/05 08:35:38;;;;;;;0.50;0.40;;;;;;;;;;6305477;22;20353;-71
2022/08/05 08:38:03;;;;;;;1.08;0.50;;;;;;;;;;6305079;22;20193;-72
2022/08/05 08:40:31;;;;;;;4.10;0.65;;;;;;;;;;6306312;22;20452;-71
2022/08/05 08:42:56;;;;;;;1.77;0.60;;;;;;;;;;6304531;22;20144;-70
2022/08/05 08:45:21;;;;;;;1.10;0.50;;;;;;;;;;6305550;22;20602;-70
2022/08/05 08:47:48;;;;;;;2.33;0.47;;;;;;;;;;6305869;22;20507;-70
2022/08/05 08:50:13;;;;;;;2.15;0.80;;;;;;;;;;6304911;22;20304;-70
2022/08/05 08:52:40;;;;;;;1.77;0.45;;;;;;;;;;6305368;22;20603;-71
2022/08/05 08:55:06;;;;;;;3.67;0.63;;;;;;;;;;6306086;22;20151;-70
2022/08/05 08:57:33;;;;;;;1.00;0.40;;;;;;;;;;6305424;22;20147;-71
2022/08/05 08:59:58;;;;;;;1.88;0.57;;;;;;;;;;6305448;22;20147;-71
2022/08/05 09:02:24;;;;;;;2.25;0.60;;;;;;;;;;6305258;22;20250;-71
2022/08/05 09:04:49;;;;;;;3.20;0.70;;;;;;;;;;6304479;22;20148;-71
2022/08/05 09:07:14;;;;;;;2.95;0.63;;;;;;;;;;6305193;22;20614;-71
2022/08/05 09:09:39;;;;;;;1.55;0.70;;;;;;;;;;6305563;22;20481;-72
2022/08/05 09:12:07;;;;;;;2.95;0.60;;;;;;;;;;6304753;22;20176;-72
2022/08/05 09:14:32;;;;;;;0.70;0.30;;;;;;;;;;6305771;22;20150;-72
2022/08/05 09:16:58;;;;;;;2.72;0.88;;;;;;;;;;6305805;22;20175;-71
2022/08/05 09:19:23;;;;;;;0.68;0.30;;;;;;;;;;6305294;22;20147;-73
2022/08/05 09:21:49;;;;;;;0.83;0.50;;;;;;;;;;6304996;22;20167;-72
2022/08/05 09:24:14;;;;;;;1.30;0.50;;;;;;;;;;6306053;22;20621;-72
2022/08/05 09:26:39;;;;;;;2.28;0.57;;;;;;;;;;6305962;22;20148;-71
2022/08/05 09:29:05;;;;;;;1.98;0.40;;;;;;;;;;6306001;22;20154;-71
2022/08/05 09:31:31;;;;;;;1.00;0.35;;;;;;;;;;6304370;22;20530;-71
2022/08/05 09:33:59;;;;;;;1.38;0.50;;;;;;;;;;6305347;22;20234;-71
2022/08/05 09:36:44;;;;;;;6.10;1.83;;;;;;;;;;6305145;22;20148;-71
2022/08/05 09:39:11;;;;;;;1.90;0.88;;;;;;;;;;6305149;22;20143;-71
2022/08/05 09:41:55;;;;;;;4.50;0.80;;;;;;;;;;6303862;22;20160;-74
2022/08/05 09:44:33;;;;;;;2.60;0.68;;;;;;;;;;6305490;22;20618;-73
2022/08/05 09:47:09;;;;;;;2.38;0.63;;;;;;;;;;6305344;22;20578;-73
2022/08/05 09:49:38;;;;;;;3.60;1.42;;;;;;;;;;6305902;22;20144;-72
2022/08/05 09:52:23;;;;;;;1.23;0.50;;;;;;;;;;6304426;22;20228;-73
2022/08/05 09:55:11;;;;;;;2.22;0.40;;;;;;;;;;6305151;22;20657;-73
2022/08/05 09:57:43;;;;;;;2.15;0.60;;;;;;;;;;6288477;22;20159;-73
2022/08/05 10:00:16;;;;;;;2.80;0.40;;;;;;;;;;6304748;22;20175;-73
2022/08/05 10:02:41;;;;;;;1.67;0.50;;;;;;;;;;6304256;22;20156;-73
2022/08/05 10:05:08;;;;;;;1.98;0.52;;;;;;;;;;6305734;22;20649;-73
2022/08/05 10:07:52;;;;;;;2.72;0.43;;;;;;;;;;6304372;22;20764;-74
2022/08/05 10:10:20;;;;;;;2.97;0.60;;;;;;;;;;6305049;22;20225;-74
2022/08/05 10:12:47;;;;;;;4.35;1.00;;;;;;;;;;6303790;22;20175;-73
2022/08/05 10:15:14;;;;;;;3.17;0.50;;;;;;;;;;6305236;22;20155;-75
2022/08/05 10:17:39;;;;;;;0.95;0.43;;;;;;;;;;6304698;22;20144;-73
2022/08/05 10:20:05;;;;;;;4.38;0.60;;;;;;;;;;6305397;22;20196;-73
2022/08/05 10:22:31;;;;;;;5.15;0.75;;;;;;;;;;6303915;22;20144;-74
2022/08/05 10:24:56;;;;;;;1.20;0.50;;;;;;;;;;6278191;22;20233;-73
2022/08/05 10:27:22;;;;;;;2.22;0.43;;;;;;;;;;6304494;22;20202;-73
2022/08/05 10:29:48;;;;;;;2.55;0.50;;;;;;;;;;6305832;22;20523;-73
2022/08/05 10:32:13;;;;;;;1.20;0.40;;;;;;;;;;6304946;22;20171;-73
2022/08/05 10:34:38;;;;;;;1.20;0.47;;;;;;;;;;6278400;22;20489;-73
2022/08/05 10:37:04;;;;;;;1.83;0.52;;;;;;;;;;6304080;22;20381;-74
2022/08/05 10:39:31;;;;;;;1.70;0.40;;;;;;;;;;6305773;22;20148;-73
2022/08/05 10:42:01;;;;;;;1.17;0.43;;;;;;;;;;6276381;22;20214;-73
2022/08/05 10:44:26;;;;;;;3.22;0.85;;;;;;;;;;6304647;22;20175;-73
2022/08/05 10:46:53;;;;;;;0.65;0.30;;;;;;;;;;6305027;22;20469;-73
2022/08/05 10:49:19;;;;;;;0.80;0.47;;;;;;;;;;6305404;22;20144;-73
2022/08/05 10:51:48;;;;;;;2.50;0.40;;;;;;;;;;6303443;22;20221;-73
2022/08/05 10:54:14;;;;;;;2.10;0.45;;;;;;;;;;6303686;22;20178;-73
2022/08/05 10:56:44;;;;;;;1.10;0.65;;;;;;;;;;6303877;22;20140;-73
2022/08/05 10:59:09;;;;;;;1.13;0.28;;;;;;;;;;6304931;22;20140;-73
2022/08/05 11:01:34;;;;;;;0.70;0.30;;;;;;;;;;6304968;22;20163;-74
2022/08/05 11:04:10;;;;;;;2.03;0.40;;;;;;;;;;6305200;22;20749;-73
2022/08/05 11:07:05;;;;;;;3.17;0.63;;;;;;;;;;6277860;22;20429;-72
2022/08/05 11:09:46;;;;;;;1.60;0.35;;;;;;;;;;6276560;22;20154;-73
2022/08/05 11:12:32;;;;;;;2.83;0.43;;;;;;;;;;6277124;22;20179;-73
2022/08/05 11:15:07;;;;;;;3.05;0.35;;;;;;;;;;6281943;22;20154;-73
2022/08/05 11:17:36;;;;;;;1.27;0.45;;;;;;;;;;6304951;22;20227;-73
2022/08/05 11:20:01;;;;;;;2.75;0.28;;;;;;;;;;6277139;22;20265;-73
2022/08/05 11:22:49;;;;;;;1.50;0.45;;;;;;;;;;6304118;22;20162;-73
2022/08/05 11:25:43;;;;;;;1.13;0.30;;;;;;;;;;6305269;22;20171;-72
2022/08/05 11:28:08;;;;;;;3.45;0.40;;;;;;;;;;6299749;22;20213;-73
2022/08/05 11:30:52;;;;;;;2.63;0.40;;;;;;;;;;6304662;22;20191;-73
2022/08/05 11:33:30;;;;;;;1.10;0.40;;;;;;;;;;6302456;22;20159;-74
2022/08/05 11:35:57;;;;;;;2.17;0.45;;;;;;;;;;6303590;22;20589;-73
2022/08/05 11:38:37;;;;;;;2.90;0.50;;;;;;;;;;6276492;22;20502;-73
2022/08/05 11:41:04;;;;;;;1.48;0.20;;;;;;;;;;6303173;22;20246;-74
2022/08/05 11:43:29;;;;;;;1.48;0.40;;;;;;;;;;6303908;22;20518;-73
2022/08/05 11:45:55;;;;;;;0.73;0.30;;;;;;;;;;6302658;22;20147;-74
2022/08/05 11:48:20;;;;;;;1.70;0.40;;;;;;;;;;6303595;22;20154;-73
2022/08/05 11:50:46;;;;;;;0.82;0.30;;;;;;;;;;6304441;22;20649;-74
2022/08/05 11:53:11;;;;;;;2.80;0.30;;;;;;;;;;6303222;22;20596;-73
2022/08/05 11:55:36;;;;;;;2.73;0.40;;;;;;;;;;6275815;22;20204;-74
2022/08/05 11:58:02;;;;;;;1.97;0.30;;;;;;;;;;6304715;22;20696;-73
2022/08/05 12:00:28;;;;;;;4.05;0.95;;;;;;;;;;6303183;22;20373;-73
2022/08/05 12:02:53;;;;;;;0.95;0.30;;;;;;;;;;6304440;22;20148;-74
2022/08/05 12:05:28;;;;;;;0.77;0.30;;;;;;;;;;6304381;22;20242;-73
2022/08/05 12:07:56;;;;;;;2.22;0.50;;;;;;;;;;6306525;22;20344;-73
2022/08/05 12:10:24;;;;;;;2.08;0.55;;;;;;;;;;6303640;22;20198;-73
2022/08/05 12:12:49;;;;;;;6.00;0.47;;;;;;;;;;6278733;22;20642;-73
2022/08/05 12:15:18;;;;;;;1.73;0.25;;;;;;;;;;6307250;22;20140;-73
2022/08/05 12:17:45;;;;;;;2.53;0.40;;;;;;;;;;6307002;22;20167;-74
2022/08/05 12:20:11;;;;;;;2.00;0.45;;;;;;;;;;6279324;22;20150;-74
2022/08/05 12:22:36;;;;;;;1.73;0.45;;;;;;;;;;6306575;22;20154;-73
2022/08/05 12:25:02;;;;;;;3.50;0.60;;;;;;;;;;6306120;22;20230;-74
2022/08/05 12:27:30;;;;;;;1.55;0.40;;;;;;;;;;6306983;22;20696;-73
2022/08/05 12:30:01;;;;;;;1.13;0.22;;;;;;;;;;6306461;22;20167;-73
2022/08/05 12:32:27;;;;;;;1.80;0.30;;;;;;;;;;6306408;22;20164;-73
2022/08/05 12:34:52;;;;;;;2.67;0.40;;;;;;;;;;6306500;22;20143;-73
2022/08/05 12:37:18;;;;;;;1.23;0.20;;;;;;;;;;6278892;22;20230;-73
2022/08/05 12:39:43;;;;;;;1.33;0.40;;;;;;;;;;6304726;22;20230;-73
2022/08/05 12:42:10;;;;;;;1.98;0.40;;;;;;;;;;6306368;22;20164;-72
2022/08/05 12:44:36;;;;;;;1.23;0.30;;;;;;;;;;6306672;22;20234;-72
2022/08/05 12:47:01;;;;;;;1.67;0.57;;;;;;;;;;6306715;22;20168;-73
2022/08/05 12:49:37;;;;;;;1.23;0.30;;;;;;;;;;6306830;22;20150;-73
2022/08/05 12:52:02;;;;;;;2.67;0.45;;;;;;;;;;6306187;22;20179;-73
2022/08/05 12:54:29;;;;;;;1.73;0.43;;;;;;;;;;6306552;22;20183;-73
2022/08/05 12:56:56;;;;;;;3.40;0.30;;;;;;;;;;6305529;22;20147;-72
2022/08/05 12:59:21;;;;;;;1.45;0.60;;;;;;;;;;6306176;22;20468;-72
2022/08/05 13:02:12;;;;;;;1.63;0.40;;;;;;;;;;6306876;22;20168;-73
2022/08/05 13:04:39;;;;;;;1.10;0.40;;;;;;;;;;6300404;22;20848;-72
2022/08/05 13:07:18;;;;;;;2.28;0.35;;;;;;;;;;6307119;22;20227;-73
2022/08/05 13:09:47;;;;;;;1.02;0.20;;;;;;;;;;6306541;22;20173;-73
2022/08/05 13:12:13;;;;;;;1.33;0.50;;;;;;;;;;6306421;22;20167;-73
2022/08/05 13:14:40;;;;;;;4.82;0.50;;;;;;;;;;6306063;22;20144;-72
2022/08/05 13:17:14;;;;;;;3.70;0.77;;;;;;;;;;6302966;22;20584;-73
2022/08/05 13:19:40;;;;;;;2.63;0.40;;;;;;;;;;6306898;22;20143;-73
2022/08/05 13:22:05;;;;;;;1.90;0.63;;;;;;;;;;6305470;22;20235;-73
2022/08/05 13:24:30;;;;;;;0.90;0.30;;;;;;;;;;6301849;22;20179;-73
2022/08/05 13:26:55;;;;;;;2.20;0.30;;;;;;;;;;6305039;22;20158;-73
2022/08/05 13:29:20;;;;;;;1.40;0.40;;;;;;;;;;6305133;22;20700;-73
2022/08/05 13:31:46;;;;;;;0.70;0.35;;;;;;;;;;6305517;22;20171;-73
2022/08/05 13:34:11;;;;;;;0.95;0.30;;;;;;;;;;6305134;22;20231;-72
2022/08/05 13:36:37;;;;;;;1.90;0.30;;;;;;;;;;6306324;22;20651;-74
2022/08/05 13:39:03;;;;;;;2.33;0.38;;;;;;;;;;6303922;22;20497;-74
2022/08/05 13:41:28;;;;;;;1.38;0.35;;;;;;;;;;6305175;22;20624;-74
2022/08/05 13:43:54;;;;;;;2.33;0.30;;;;;;;;;;6304868;22;20168;-73
2022/08/05 13:46:20;;;;;;;2.40;0.45;;;;;;;;;;6304374;22;20353;-73
2022/08/05 13:48:45;;;;;;;0.93;0.50;;;;;;;;;;6304220;22;20158;-72
2022/08/05 13:51:14;;;;;;;0.82;0.55;;;;;;;;;;6304783;22;20228;-73
2022/08/05 13:53:41;;;;;;;0.90;0.20;;;;;;;;;;6278310;22;20172;-72
2022/08/05 13:56:06;;;;;;;4.70;0.30;;;;;;;;;;6305101;22;20139;-73
2022/08/05 13:58:32;;;;;;;1.17;0.30;;;;;;;;;;6305026;22;20517;-73
2022/08/05 14:00:57;;;;;;;0.50;0.30;;;;;;;;;;6304462;22;20164;-73
2022/08/05 14:03:22;;;;;;;3.25;0.20;;;;;;;;;;6277090;22;20438;-73
2022/08/05 14:05:47;;;;;;;2.05;0.30;;;;;;;;;;6305147;22;20164;-73
2022/08/05 14:08:13;;;;;;;1.30;0.25;;;;;;;;;;6305356;22;20148;-73
2022/08/05 14:10:38;;;;;;;2.63;0.25;;;;;;;;;;6304689;22;20615;-73
2022/08/05 14:13:06;;;;;;;1.50;0.30;;;;;;;;;;6305185;22;20172;-73
2022/08/05 14:15:32;;;;;;;0.73;0.30;;;;;;;;;;6305016;22;20359;-73
2022/08/05 14:17:57;;;;;;;0.40;0.30;;;;;;;;;;6304582;22;20173;-73
2022/08/05 14:20:22;;;;;;;1.07;0.37;;;;;;;;;;6304737;22;20167;-73
2022/08/05 14:22:47;;;;;;;0.40;0.20;;;;;;;;;;6304636;22;20422;-74
2022/08/05 14:25:13;;;;;;;2.73;1.10;;;;;;;;;;6304676;22;20704;-72
2022/08/05 14:27:39;;;;;;;1.67;0.30;;;;;;;;;;6276887;22;20404;-73
2022/08/05 14:30:04;;;;;;;1.58;0.85;;;;;;;;;;6303609;22;20175;-73
2022/08/05 14:32:30;;;;;;;0.88;0.30;;;;;;;;;;6305040;22;20175;-74
2022/08/05 14:34:55;;;;;;;1.83;0.50;;;;;;;;;;6303618;22;20140;-73
2022/08/05 14:37:20;;;;;;;0.85;0.40;;;;;;;;;;6303879;22;20441;-73
2022/08/05 14:39:45;;;;;;;3.43;0.43;;;;;;;;;;6304882;22;20618;-73
2022/08/05 14:42:10;;;;;;;3.07;1.00;;;;;;;;;;6303174;22;20389;-74
2022/08/05 14:44:36;;;;;;;3.20;0.60;;;;;;;;;;6304601;22;20394;-73
2022/08/05 14:47:01;;;;;;;0.93;0.33;;;;;;;;;;6304235;22;20151;-73